Etusivu
METAR-TAF:

METAR-TAF

Lentoasemat :

Baker Municipal Airport

Baker, Montana, Yhdysvallat

Leveyspiiri: 46-20-52N, Pituuspiiri: 104-15-27W, korkeus merenpinnasta: 905 m

Tämänhetkinen sää

Tämä raportti tehtiin 58 minuuttia sitten, kello 16.51 UTC
Tuuli 7 kn lännestä/luoteesta
Lämpötila 6°C
Kosteus 56%
Ilmanpaine 1015 hPa
Näkyvyys: 16.1 km
selkeää

METAR: KBHK 211651Z AUTO 30007KT 10SM CLR 06/M02 A2997 RMK AO2 SLP166 T00611022

Aika: 11:49 (17:49 UTC)


TAF: puuttuu

Säähavainnot ja -ennusteet yli 4000 lentoasemalta (METAR- ja TAF-raportit).

Käytössä olevat sääasemat on merkitty karttaan keltaisilla ja punaisilla pisteillä.

Aseta hiiri pisteen päälle nähdäksesi sääaseman nimen.

Klikkaa sitten nähdäksesi säähavainnot ja -ennusteet.

Kartan vaihtaminen: klikkaa mustalla rastilla varustettuja vihreitä pisteitä, niin voit zoomata sisään; viivalla varustettua vihreää pistettä, niin voit zoomata ulos tai vihreitä nuolia, niin pääset viereisille kartoille.


METAR-TAF: